createdAt,value
2023-01-09T00:01:46.920Z,6.31
2023-01-09T00:04:13.906Z,6.26
2023-01-09T00:07:03.600Z,6.24
2023-01-09T00:09:30.438Z,6.19
2023-01-09T00:11:57.269Z,6.16
2023-01-09T00:14:24.200Z,6.14
2023-01-09T00:16:50.974Z,6.11
2023-01-09T00:19:20.999Z,6.07
2023-01-09T00:21:53.435Z,6.04
2023-01-09T00:24:21.731Z,6.02
2023-01-09T00:26:54.062Z,6.00
2023-01-09T00:29:22.772Z,5.97
2023-01-09T00:31:54.558Z,5.91
2023-01-09T00:34:25.883Z,5.86
2023-01-09T00:36:55.420Z,5.80
2023-01-09T00:39:26.451Z,5.79
2023-01-09T00:41:58.680Z,5.77
2023-01-09T00:44:32.031Z,5.74
2023-01-09T00:47:04.858Z,5.69
2023-01-09T00:49:34.440Z,5.67
2023-01-09T00:52:01.845Z,5.66
2023-01-09T00:54:29.769Z,5.61
2023-01-09T00:56:59.401Z,5.57
2023-01-09T00:59:29.783Z,5.55
2023-01-09T01:01:59.111Z,5.53
2023-01-09T01:04:57.566Z,5.48
2023-01-09T01:07:40.102Z,5.48
2023-01-09T01:10:23.682Z,5.45
2023-01-09T01:12:50.926Z,5.40
2023-01-09T01:15:18.783Z,5.40
2023-01-09T01:17:45.655Z,5.35
2023-01-09T01:20:16.256Z,5.34
2023-01-09T01:22:43.026Z,5.30
2023-01-09T01:25:11.680Z,5.28
2023-01-09T01:27:44.667Z,5.26
2023-01-09T01:30:13.685Z,5.21
2023-01-09T01:32:43.310Z,5.19
2023-01-09T01:35:14.117Z,5.15
2023-01-09T01:37:41.069Z,5.12
2023-01-09T01:40:10.344Z,5.10
2023-01-09T01:42:37.237Z,5.06
2023-01-09T01:45:24.841Z,5.05
2023-01-09T01:47:59.069Z,4.99
2023-01-09T01:50:55.222Z,4.95
2023-01-09T01:53:45.997Z,4.91
2023-01-09T01:56:18.397Z,4.88
2023-01-09T01:58:50.218Z,4.85
2023-01-09T02:01:25.909Z,4.80
2023-01-09T02:03:55.597Z,4.79
2023-01-09T02:06:22.409Z,4.77
2023-01-09T02:08:51.707Z,4.76
2023-01-09T02:11:21.686Z,4.74
2023-01-09T02:13:53.295Z,4.72
2023-01-09T02:17:02.381Z,4.67
2023-01-09T02:20:02.536Z,4.68
2023-01-09T02:22:50.598Z,4.76
2023-01-09T02:25:35.695Z,4.80
2023-01-09T02:28:24.070Z,4.83
2023-01-09T02:31:16.508Z,4.83
2023-01-09T02:34:02.063Z,4.81
2023-01-09T02:36:42.341Z,4.77
2023-01-09T02:39:18.202Z,4.76
2023-01-09T02:42:12.907Z,4.71
2023-01-09T02:44:45.086Z,4.69
2023-01-09T02:47:21.060Z,4.66
2023-01-09T02:49:51.675Z,4.64
2023-01-09T02:52:48.357Z,4.63
2023-01-09T02:55:18.440Z,4.62
2023-01-09T02:58:10.243Z,4.60
2023-01-09T03:00:49.515Z,4.59
2023-01-09T03:03:44.155Z,4.59
2023-01-09T03:06:21.227Z,4.56
2023-01-09T03:08:54.403Z,4.56
2023-01-09T03:11:22.077Z,4.53
2023-01-09T03:13:56.057Z,4.54
2023-01-09T03:16:32.815Z,4.52
2023-01-09T03:19:00.212Z,4.50
2023-01-09T03:21:28.425Z,4.49
2023-01-09T03:23:57.952Z,4.47
2023-01-09T03:26:25.349Z,4.44
2023-01-09T03:28:52.582Z,4.44
2023-01-09T03:31:19.305Z,4.41
2023-01-09T03:33:48.729Z,4.39
2023-01-09T03:36:20.536Z,4.35
2023-01-09T03:38:47.595Z,4.32
2023-01-09T03:41:19.371Z,4.32
2023-01-09T03:43:50.605Z,4.28
2023-01-09T03:46:26.545Z,4.27
2023-01-09T03:48:53.387Z,4.22
2023-01-09T03:51:20.135Z,4.18
2023-01-09T03:53:46.792Z,4.17
2023-01-09T03:56:13.473Z,4.12
2023-01-09T03:58:39.989Z,4.11
2023-01-09T04:01:12.747Z,4.11
2023-01-09T04:03:40.147Z,4.08
2023-01-09T04:06:07.403Z,4.07
2023-01-09T04:08:36.623Z,4.05
2023-01-09T04:11:09.702Z,4.01
2023-01-09T04:13:36.320Z,3.99
2023-01-09T04:16:06.787Z,4.00
2023-01-09T04:18:33.374Z,3.94
2023-01-09T04:21:00.130Z,3.93
2023-01-09T04:23:29.595Z,3.90
2023-01-09T04:25:56.333Z,3.90
2023-01-09T04:28:29.319Z,3.88
2023-01-09T04:31:02.676Z,3.85
2023-01-09T04:33:29.876Z,3.86
2023-01-09T04:35:59.695Z,3.85
2023-01-09T04:39:16.418Z,3.87
2023-01-09T04:41:48.984Z,3.85
2023-01-09T04:44:17.028Z,3.84
2023-01-09T04:46:43.886Z,3.89
2023-01-09T04:49:11.268Z,3.93
2023-01-09T04:51:41.972Z,4.00
2023-01-09T04:54:20.985Z,4.02
2023-01-09T04:56:47.907Z,4.07
2023-01-09T04:59:18.991Z,4.13
2023-01-09T05:01:55.090Z,4.18
2023-01-09T05:04:28.044Z,4.21
2023-01-09T05:07:55.903Z,4.25
2023-01-09T05:10:22.910Z,4.26
2023-01-09T05:12:52.066Z,4.28
2023-01-09T05:15:18.828Z,4.29
2023-01-09T05:18:13.123Z,4.30
2023-01-09T05:20:45.539Z,4.32
2023-01-09T05:23:14.541Z,4.32
2023-01-09T05:25:47.541Z,4.33
2023-01-09T05:28:14.963Z,4.36
2023-01-09T05:30:44.708Z,4.36
2023-01-09T05:33:38.676Z,4.41
2023-01-09T05:36:07.454Z,4.43
2023-01-09T05:38:34.069Z,4.42
2023-01-09T05:41:15.029Z,4.44
2023-01-09T05:43:44.531Z,4.42
2023-01-09T05:46:26.288Z,4.43
2023-01-09T05:48:58.473Z,4.42
2023-01-09T05:51:37.168Z,4.43
2023-01-09T05:54:49.870Z,4.46
2023-01-09T05:57:28.902Z,4.47
2023-01-09T05:59:56.865Z,4.47
2023-01-09T06:02:23.613Z,4.50
2023-01-09T06:04:53.864Z,4.51
2023-01-09T06:07:26.689Z,4.54
2023-01-09T06:09:53.463Z,4.54
2023-01-09T06:12:23.164Z,4.56
2023-01-09T06:14:57.025Z,4.57
2023-01-09T06:17:39.682Z,4.58
2023-01-09T06:20:31.405Z,4.63
2023-01-09T06:22:58.040Z,4.61
2023-01-09T06:25:24.717Z,4.64
2023-01-09T06:27:52.229Z,4.65
2023-01-09T06:30:22.055Z,4.68
2023-01-09T06:32:52.558Z,4.70
2023-01-09T06:35:22.811Z,4.71
2023-01-09T06:38:39.386Z,4.76
2023-01-09T06:43:46.857Z,4.77
2023-01-09T06:46:16.510Z,4.80
2023-01-09T06:48:43.107Z,4.82
2023-01-09T06:51:12.243Z,4.87
2023-01-09T06:54:09.018Z,4.90
2023-01-09T06:56:35.777Z,4.93
2023-01-09T06:59:58.575Z,4.97
2023-01-09T07:02:51.026Z,5.01
2023-01-09T07:05:17.668Z,5.03
2023-01-09T07:07:44.328Z,5.05
2023-01-09T07:10:14.885Z,5.06
2023-01-09T07:12:45.101Z,5.06
2023-01-09T07:15:11.780Z,5.09
2023-01-09T07:17:38.463Z,5.11
2023-01-09T07:20:05.874Z,5.11
2023-01-09T07:22:36.886Z,5.12
2023-01-09T07:25:06.539Z,5.13
2023-01-09T07:28:02.046Z,5.14
2023-01-09T07:33:34.683Z,5.15
2023-01-09T07:36:16.634Z,5.12
2023-01-09T07:38:43.235Z,5.14
2023-01-09T07:41:19.167Z,5.14
2023-01-09T07:44:40.665Z,5.17
2023-01-09T07:47:09.477Z,5.17
2023-01-09T07:49:42.405Z,5.19
2023-01-09T07:52:15.617Z,5.20
2023-01-09T07:54:42.843Z,5.22
2023-01-09T07:57:15.271Z,5.22
2023-01-09T07:59:41.914Z,5.26
2023-01-09T08:03:05.561Z,5.31
2023-01-09T08:05:32.163Z,5.32
2023-01-09T08:07:58.865Z,5.31
2023-01-09T08:10:37.283Z,5.32
2023-01-09T08:13:39.670Z,5.35
2023-01-09T08:16:06.788Z,5.34
2023-01-09T08:18:33.648Z,5.32
2023-01-09T08:21:04.071Z,5.32
2023-01-09T08:24:05.166Z,5.34
2023-01-09T08:26:31.834Z,5.33
2023-01-09T08:29:23.322Z,5.34
2023-01-09T08:31:56.304Z,5.35
2023-01-09T08:34:43.353Z,5.35
2023-01-09T08:37:15.597Z,5.32
2023-01-09T08:40:09.203Z,5.32
2023-01-09T08:43:04.187Z,5.29
2023-01-09T08:45:49.961Z,5.30
2023-01-09T08:48:17.346Z,5.37
2023-01-09T08:50:44.723Z,5.44
2023-01-09T08:53:11.544Z,5.47
2023-01-09T08:55:38.745Z,5.49
2023-01-09T08:58:08.579Z,5.56
2023-01-09T09:00:46.275Z,5.57
2023-01-09T09:03:12.873Z,5.59
2023-01-09T09:05:42.216Z,5.60
2023-01-09T09:08:09.178Z,5.62
2023-01-09T09:10:39.746Z,5.61
2023-01-09T09:14:17.242Z,5.68
2023-01-09T09:17:04.099Z,5.71
2023-01-09T09:19:30.735Z,5.72
2023-01-09T09:21:57.358Z,5.77
2023-01-09T09:24:29.857Z,5.76
2023-01-09T09:26:56.450Z,5.77
2023-01-09T09:29:55.865Z,5.79
2023-01-09T09:35:07.589Z,5.84
2023-01-09T09:37:34.129Z,5.89
2023-01-09T09:40:31.921Z,5.89
2023-01-09T09:43:35.490Z,5.90
2023-01-09T09:46:42.860Z,5.93
2023-01-09T09:49:31.327Z,5.95
2023-01-09T09:52:41.574Z,5.96
2023-01-09T09:55:46.627Z,5.96
2023-01-09T09:58:38.522Z,5.96
2023-01-09T10:01:07.327Z,5.93
2023-01-09T10:04:01.601Z,5.90
2023-01-09T10:06:51.839Z,5.87
2023-01-09T10:10:00.522Z,5.86
2023-01-09T10:13:11.098Z,5.85
2023-01-09T10:16:16.998Z,5.87
2023-01-09T10:19:39.548Z,5.96
2023-01-09T10:22:53.487Z,6.08
2023-01-09T10:25:20.049Z,6.15
2023-01-09T10:28:13.492Z,6.25
2023-01-09T10:31:14.000Z,6.36
2023-01-09T10:34:46.813Z,6.49
2023-01-09T10:37:44.676Z,6.71
2023-01-09T10:40:31.641Z,6.78
2023-01-09T10:43:29.091Z,6.76
2023-01-09T10:46:01.591Z,6.73
2023-01-09T10:48:37.639Z,6.71
2023-01-09T10:51:42.170Z,6.67
2023-01-09T10:54:35.359Z,6.61
2023-01-09T10:58:26.094Z,6.56
2023-01-09T11:00:52.785Z,6.49
2023-01-09T11:03:46.681Z,6.53
2023-01-09T11:06:32.719Z,6.56
2023-01-09T11:09:01.630Z,6.81
2023-01-09T11:12:26.076Z,7.69
2023-01-09T11:14:53.074Z,9.63
2023-01-09T11:17:34.865Z,9.55
2023-01-09T11:20:27.904Z,8.73
2023-01-09T11:23:03.522Z,8.55
2023-01-09T13:14:56.881Z,7.48
2023-01-09T13:17:55.647Z,7.45
2023-01-09T13:20:48.598Z,7.41
2023-01-09T13:46:30.913Z,7.56
2023-01-09T13:49:48.373Z,7.51
2023-01-09T14:01:09.582Z,7.21
2023-01-09T14:09:01.879Z,7.09
2023-01-09T14:13:00.772Z,7.04
2023-01-09T14:16:32.573Z,6.97
2023-01-09T14:20:03.465Z,6.93
2023-01-09T14:51:41.254Z,6.87
2023-01-09T15:18:56.241Z,6.52
2023-01-09T15:34:25.407Z,6.24
2023-01-09T15:46:28.571Z,6.13
2023-01-09T15:58:17.075Z,5.98
2023-01-09T16:01:58.012Z,5.95
2023-01-09T16:06:50.801Z,5.93
2023-01-09T19:02:51.860Z,5.67
2023-01-09T20:17:56.347Z,4.83
2023-01-09T20:20:50.206Z,4.81
2023-01-09T20:23:19.584Z,4.80
2023-01-09T20:27:16.305Z,4.77
2023-01-09T20:29:44.484Z,4.71
2023-01-09T20:32:26.943Z,4.69
2023-01-09T20:40:04.795Z,4.81
2023-01-09T20:49:55.310Z,4.96
2023-01-09T21:47:13.901Z,4.36
2023-01-09T22:57:30.300Z,4.71
2023-01-09T23:09:26.858Z,4.60
2023-01-09T23:13:29.303Z,4.57
2023-01-09T23:17:18.412Z,4.53
2023-01-09T23:41:51.569Z,4.60
2023-01-09T23:59:29.155Z,4.44
